WetterOnline ( https://www.wetteronline.de )

Wetter aktuell Dorsten

Aktuelles Wetter: Essen (161m)

6-stündlich | Neueste Meldungen
Ortszeit Temperatur Wetter
Fr, 22.10. 14:00 10.1° C bedeckt
Fr, 22.10. 8:00 5.4° C bewölkt
Fr, 22.10. 2:00 5.7° C bedeckt
Do, 21.10. 20:00 7.0° C leicht bewölkt
Do, 21.10. 14:00 10.8° C leichter Regen
Do, 21.10. 8:00 11.4° C bedeckt
Do, 21.10. 2:00 15.6° C wolkig
Mi, 20.10. 20:00 16.5° C bewölkt
Ortszeit Temperatur Wetter
Fr, 22.10. 16:00 10.6° C bedeckt
Fr, 22.10. 15:30 10.5° C bewölkt
Fr, 22.10. 15:20 10.5° C bewölkt
Fr, 22.10. 15:10 10.5° C bewölkt
Fr, 22.10. 15:00 10.3° C bewölkt
Fr, 22.10. 14:50 10.3° C bewölkt
Fr, 22.10. 14:30 9.7° C bedeckt
Fr, 22.10. 14:00 10.1° C bedeckt
Fr, 22.10. 13:30 10.3° C bewölkt
Fr, 22.10. 13:00 10.0° C bewölkt
Fr, 22.10. 12:30 9.6° C wolkig
Ortszeit Relative Feuchte Sichtweite
Fr, 22.10. 14:00 70% 45 km
Fr, 22.10. 8:00 83% 35 km
Fr, 22.10. 2:00 93% 25 km
Do, 21.10. 20:00 91% 35 km
Do, 21.10. 14:00 77% 50 km
Do, 21.10. 8:00 83% 55 km
Do, 21.10. 2:00 80% 55 km
Mi, 20.10. 20:00 75% 60 km
Ortszeit Relative Feuchte Sichtweite
Fr, 22.10. 16:00 74% 45 km
Fr, 22.10. 15:30 73% 45 km
Fr, 22.10. 15:20 73% -
Fr, 22.10. 15:10 73% -
Fr, 22.10. 15:00 73% 45 km
Fr, 22.10. 14:50 73% -
Fr, 22.10. 14:30 75% 40 km
Fr, 22.10. 14:00 70% 45 km
Fr, 22.10. 13:30 70% 40 km
Fr, 22.10. 13:00 70% 40 km
Fr, 22.10. 12:30 73% 45 km
Ortszeit Niederschlagsmenge Niederschlagsart
Fr, 22.10. 14:00 0.1 l/m2 in 6 Std. -
Fr, 22.10. 8:00 0.0 l/m2 in 12 Std. -
Fr, 22.10. 2:00 0.0 l/m2 in 6 Std. -
Do, 21.10. 20:00 4 l/m2 in 12 Std. -
Do, 21.10. 14:00 2 l/m2 in 6 Std. Regen
Do, 21.10. 8:00 16 l/m2 in 12 Std. Regen
Do, 21.10. 2:00 9 l/m2 in 6 Std. Regen
Mi, 20.10. 20:00 0.1 l/m2 in 12 Std. Regen
Ortszeit Niederschlagsmenge Niederschlagsart
Fr, 22.10. 16:00 keine Meldung -
Fr, 22.10. 15:30 0.0 l/m2 in 1 Std. -
Fr, 22.10. 15:20 keine Meldung -
Fr, 22.10. 15:10 keine Meldung -
Fr, 22.10. 15:00 0.1 l/m2 in 1 Std. Regen
Fr, 22.10. 14:50 keine Meldung -
Fr, 22.10. 14:30 0.1 l/m2 in 1 Std. Schneeregen
Fr, 22.10. 14:00 0.0 l/m2 in 1 Std. -
Fr, 22.10. 13:30 0.0 l/m2 in 1 Std. -
Fr, 22.10. 13:00 0.1 l/m2 in 1 Std. Regen
Fr, 22.10. 12:30 0.0 l/m2 in 1 Std. -
Ortszeit Stärke Spitze Richtung
km/h Bft. km/h Grad Sektor
Fr, 22.10. 14:00 26 4 50 240° SW
Fr, 22.10. 8:00 - - - - -
Fr, 22.10. 2:00 - - - - -
Do, 21.10. 20:00 - - - - -
Do, 21.10. 14:00 29 5 68 250° W
Do, 21.10. 8:00 36 5 72 210° SW
Do, 21.10. 2:00 22 4 40 160° S
Mi, 20.10. 20:00 17 3 56 200° S
Ortszeit Stärke Spitze Richtung
km/h Bft. km/h Grad Sektor
Fr, 22.10. 16:00 18 3 43 250° W
Fr, 22.10. 15:30 25 4 43 240° SW
Fr, 22.10. 15:20 25 4 - 240° SW
Fr, 22.10. 15:10 18 3 - 240° SW
Fr, 22.10. 15:00 22 4 50 250° W
Fr, 22.10. 14:50 22 4 - 250° W
Fr, 22.10. 14:30 19 3 41 250° W
Fr, 22.10. 14:00 26 4 50 240° SW
Fr, 22.10. 13:30 26 4 50 240° SW
Fr, 22.10. 13:00 25 4 47 240° SW
Fr, 22.10. 12:30 20 4 43 230° SW
Ortszeit Untergrenze Bedeckung Gattung
total tief tief mittel hoch
Fr, 22.10. 14:00 840 m 8/8 8/8 - - -
Fr, 22.10. 8:00 1050 m 8/8 6/8 - - -
Fr, 22.10. 2:00 1410 m 8/8 8/8 - - -
Do, 21.10. 20:00 3000 m 2/8 2/8 - - -
Do, 21.10. 14:00 720 m 8/8 8/8 - - -
Do, 21.10. 8:00 510 m 8/8 8/8 - - -
Do, 21.10. 2:00 1200 m 8/8 3/8 - - -
Mi, 20.10. 20:00 930 m 8/8 4/8 - - -
Ortszeit Bedeckungsgrad in Achtel und Wolkenuntergrenze
Fr, 22.10. 16:00 6(720m) 8(1110m) 8(1500m)
Fr, 22.10. 15:30 7(750m) 7(2400m)
Fr, 22.10. 15:20 7(750m) 7(2400m)
Fr, 22.10. 15:10 5(720m) 7(870m) 7(1170m)
Fr, 22.10. 15:00 7(840m) 7(1080m) 7(1290m)
Fr, 22.10. 14:50 7(840m) 7(1080m) 7(1290m)
Fr, 22.10. 14:30 7(810m) 8(990m)
Fr, 22.10. 14:00 6(840m) 7(1020m) 8(1350m)
Fr, 22.10. 13:30 3(840m) 7(1500m) 7(1500m)
Fr, 22.10. 13:00 3(810m) 7(1500m) 7(1500m)
Fr, 22.10. 12:30 5(750m) 5(1380m) 6(1500m)
Ortszeit Luftdruck NN (hPa) Tendenz (hPa in 3 Std.)
Fr, 22.10. 14:00 1016 + 0,5
Fr, 22.10. 8:00 1015 0,0
Fr, 22.10. 2:00 1015 + 1,3
Do, 21.10. 20:00 1011 + 3,6
Do, 21.10. 14:00 1004 + 2,8
Do, 21.10. 8:00 988 - 1,2
Do, 21.10. 2:00 992 - 6,4
Mi, 20.10. 20:00 1001 - 2,2
Ortszeit Luftdruck NN (hPa) Tendenz (hPa in 3 Std.)
Fr, 22.10. 16:00 1016 + 0,8
Fr, 22.10. 15:30 1016 + 0,6
Fr, 22.10. 15:20 1016 keine Meldung
Fr, 22.10. 15:10 1016 keine Meldung
Fr, 22.10. 15:00 1016 + 0,9
Fr, 22.10. 14:50 1016 keine Meldung
Fr, 22.10. 14:30 1016 + 0,6
Fr, 22.10. 14:00 1016 + 0,5
Fr, 22.10. 13:30 1016 + 0,6
Fr, 22.10. 13:00 1016 + 0,7
Fr, 22.10. 12:30 1016 + 0,8
Ortszeit Schneehöhe (cm)
Fr, 22.10. 14:00 0
Fr, 22.10. 8:00 0
Fr, 22.10. 2:00 0
Do, 21.10. 20:00 0
Do, 21.10. 14:00 0
Do, 21.10. 8:00 0
Do, 21.10. 2:00 0
Mi, 20.10. 20:00 0
Ortszeit Schneehöhe (cm)
Fr, 22.10. 16:00 -
Fr, 22.10. 15:30 0
Fr, 22.10. 15:20 0
Fr, 22.10. 15:10 0
Fr, 22.10. 15:00 0
Fr, 22.10. 14:50 0
Fr, 22.10. 14:30 0
Fr, 22.10. 14:00 0
Fr, 22.10. 13:30 0
Fr, 22.10. 13:00 0
Fr, 22.10. 12:30 0
Link zu dieser Seite / Seite empfehlen

Das Wetter in ...